sensor_id;sensor_type;location;lat;lon;timestamp;pressure;altitude;pressure_sealevel;temperature;humidity
51053;BME280;37093;37.716;-122.060;2023-02-12T00:01:08;99597.55;;;14.77;33.41
51053;BME280;37093;37.716;-122.060;2023-02-12T00:03:37;99609.09;;;13.93;34.78
51053;BME280;37093;37.716;-122.060;2023-02-12T00:06:06;99610.31;;;14.42;33.63
51053;BME280;37093;37.716;-122.060;2023-02-12T00:08:35;99623.42;;;14.34;34.08
51053;BME280;37093;37.716;-122.060;2023-02-12T00:11:10;99627.30;;;14.47;35.49
51053;BME280;37093;37.716;-122.060;2023-02-12T00:13:39;99622.82;;;14.48;35.08
51053;BME280;37093;37.716;-122.060;2023-02-12T00:16:09;99622.58;;;14.10;33.67
51053;BME280;37093;37.716;-122.060;2023-02-12T00:18:38;99624.38;;;13.81;34.72
51053;BME280;37093;37.716;-122.060;2023-02-12T00:21:06;99626.05;;;13.48;35.66
51053;BME280;37093;37.716;-122.060;2023-02-12T00:23:35;99630.69;;;13.67;35.14
51053;BME280;37093;37.716;-122.060;2023-02-12T00:26:06;99629.92;;;14.10;35.19
51053;BME280;37093;37.716;-122.060;2023-02-12T00:28:36;99629.09;;;13.78;34.67
51053;BME280;37093;37.716;-122.060;2023-02-12T00:31:07;99635.35;;;13.55;36.23
51053;BME280;37093;37.716;-122.060;2023-02-12T00:33:35;99639.28;;;13.93;35.82
51053;BME280;37093;37.716;-122.060;2023-02-12T00:36:04;99641.15;;;14.34;35.29
51053;BME280;37093;37.716;-122.060;2023-02-12T00:38:33;99645.02;;;14.44;32.72
51053;BME280;37093;37.716;-122.060;2023-02-12T00:41:02;99642.91;;;14.27;34.41
51053;BME280;37093;37.716;-122.060;2023-02-12T00:43:30;99639.42;;;14.61;35.18
51053;BME280;37093;37.716;-122.060;2023-02-12T00:45:58;99641.47;;;14.46;33.98
51053;BME280;37093;37.716;-122.060;2023-02-12T00:48:26;99647.30;;;14.80;33.54
51053;BME280;37093;37.716;-122.060;2023-02-12T00:50:54;99655.76;;;14.79;33.37
51053;BME280;37093;37.716;-122.060;2023-02-12T00:53:23;99660.76;;;14.83;34.58
51053;BME280;37093;37.716;-122.060;2023-02-12T00:55:52;99664.26;;;14.53;33.37
51053;BME280;37093;37.716;-122.060;2023-02-12T00:58:20;99659.27;;;14.87;33.87
51053;BME280;37093;37.716;-122.060;2023-02-12T01:00:49;99657.25;;;14.59;32.77
51053;BME280;37093;37.716;-122.060;2023-02-12T01:03:18;99652.80;;;15.43;32.63
51053;BME280;37093;37.716;-122.060;2023-02-12T01:05:47;99657.70;;;14.73;33.51
51053;BME280;37093;37.716;-122.060;2023-02-12T01:08:16;99656.91;;;15.19;34.48
51053;BME280;37093;37.716;-122.060;2023-02-12T01:10:44;99648.10;;;15.29;31.89
51053;BME280;37093;37.716;-122.060;2023-02-12T01:13:14;99647.94;;;15.05;32.51
51053;BME280;37093;37.716;-122.060;2023-02-12T01:15:42;99648.51;;;15.18;34.02
51053;BME280;37093;37.716;-122.060;2023-02-12T01:18:10;99653.33;;;15.15;32.37
51053;BME280;37093;37.716;-122.060;2023-02-12T01:20:39;99654.25;;;15.44;33.37
51053;BME280;37093;37.716;-122.060;2023-02-12T01:23:08;99657.78;;;15.72;33.36
51053;BME280;37093;37.716;-122.060;2023-02-12T01:25:37;99657.71;;;15.55;33.31
51053;BME280;37093;37.716;-122.060;2023-02-12T01:28:06;99663.38;;;15.56;32.98
51053;BME280;37093;37.716;-122.060;2023-02-12T01:30:34;99672.43;;;15.30;34.21
51053;BME280;37093;37.716;-122.060;2023-02-12T01:33:02;99680.57;;;15.68;33.95
51053;BME280;37093;37.716;-122.060;2023-02-12T01:35:31;99675.73;;;15.40;32.43
51053;BME280;37093;37.716;-122.060;2023-02-12T01:38:00;99667.48;;;15.62;34.44
51053;BME280;37093;37.716;-122.060;2023-02-12T01:40:28;99658.88;;;15.29;34.89
51053;BME280;37093;37.716;-122.060;2023-02-12T01:43:00;99650.67;;;15.19;34.20
51053;BME280;37093;37.716;-122.060;2023-02-12T01:45:52;99647.36;;;15.80;34.35
51053;BME280;37093;37.716;-122.060;2023-02-12T01:48:23;99651.40;;;15.38;33.71
51053;BME280;37093;37.716;-122.060;2023-02-12T01:50:54;99657.91;;;14.91;35.17
51053;BME280;37093;37.716;-122.060;2023-02-12T01:53:24;99662.66;;;14.68;35.09
51053;BME280;37093;37.716;-122.060;2023-02-12T01:55:58;99674.80;;;14.87;35.74
51053;BME280;37093;37.716;-122.060;2023-02-12T01:58:30;99683.65;;;14.71;35.60
51053;BME280;37093;37.716;-122.060;2023-02-12T02:01:01;99690.90;;;14.14;37.65
51053;BME280;37093;37.716;-122.060;2023-02-12T02:03:31;99694.40;;;14.10;37.87
51053;BME280;37093;37.716;-122.060;2023-02-12T02:06:02;99690.94;;;13.82;39.12
51053;BME280;37093;37.716;-122.060;2023-02-12T02:08:34;99694.98;;;13.62;39.24
51053;BME280;37093;37.716;-122.060;2023-02-12T02:11:03;99699.26;;;13.35;40.10
51053;BME280;37093;37.716;-122.060;2023-02-12T02:13:32;99710.09;;;13.59;40.23
51053;BME280;37093;37.716;-122.060;2023-02-12T02:16:09;99720.46;;;13.50;39.35
51053;BME280;37093;37.716;-122.060;2023-02-12T02:18:43;99726.74;;;13.86;39.38
51053;BME280;37093;37.716;-122.060;2023-02-12T02:21:29;99730.16;;;14.39;38.91
51053;BME280;37093;37.716;-122.060;2023-02-12T02:24:33;99732.77;;;14.47;38.42
51053;BME280;37093;37.716;-122.060;2023-02-12T02:27:19;99725.86;;;14.68;38.01
51053;BME280;37093;37.716;-122.060;2023-02-12T02:30:07;99713.79;;;14.31;37.98
51053;BME280;37093;37.716;-122.060;2023-02-12T02:32:43;99696.93;;;14.36;38.05
51053;BME280;37093;37.716;-122.060;2023-02-12T02:35:22;99687.95;;;14.29;37.78
51053;BME280;37093;37.716;-122.060;2023-02-12T02:38:02;99700.27;;;14.92;37.56
51053;BME280;37093;37.716;-122.060;2023-02-12T02:40:39;99715.07;;;14.68;38.04
51053;BME280;37093;37.716;-122.060;2023-02-12T02:43:16;99729.84;;;14.50;38.09
51053;BME280;37093;37.716;-122.060;2023-02-12T02:45:51;99743.19;;;14.06;39.87
51053;BME280;37093;37.716;-122.060;2023-02-12T02:48:25;99741.66;;;13.53;39.82
51053;BME280;37093;37.716;-122.060;2023-02-12T02:50:58;99745.52;;;13.63;40.30
51053;BME280;37093;37.716;-122.060;2023-02-12T02:53:30;99740.06;;;13.95;40.15
51053;BME280;37093;37.716;-122.060;2023-02-12T02:56:04;99751.87;;;14.08;39.06
51053;BME280;37093;37.716;-122.060;2023-02-12T02:58:38;99758.75;;;13.94;39.57
51053;BME280;37093;37.716;-122.060;2023-02-12T03:01:12;99767.48;;;13.81;40.12
51053;BME280;37093;37.716;-122.060;2023-02-12T03:03:45;99767.96;;;14.05;39.89
51053;BME280;37093;37.716;-122.060;2023-02-12T03:06:21;99769.35;;;14.19;39.51
51053;BME280;37093;37.716;-122.060;2023-02-12T03:08:55;99770.67;;;14.05;39.30
51053;BME280;37093;37.716;-122.060;2023-02-12T03:11:26;99760.91;;;14.09;39.07
51053;BME280;37093;37.716;-122.060;2023-02-12T03:14:00;99757.86;;;14.47;39.00
51053;BME280;37093;37.716;-122.060;2023-02-12T03:16:32;99766.41;;;14.22;38.40
51053;BME280;37093;37.716;-122.060;2023-02-12T03:19:05;99781.17;;;14.29;38.18
51053;BME280;37093;37.716;-122.060;2023-02-12T03:21:40;99794.79;;;14.08;38.88
51053;BME280;37093;37.716;-122.060;2023-02-12T03:24:15;99809.05;;;13.91;39.30
51053;BME280;37093;37.716;-122.060;2023-02-12T03:26:49;99807.45;;;13.94;39.37
51053;BME280;37093;37.716;-122.060;2023-02-12T03:29:19;99807.30;;;13.62;40.39
51053;BME280;37093;37.716;-122.060;2023-02-12T03:31:57;99802.45;;;13.69;40.12
51053;BME280;37093;37.716;-122.060;2023-02-12T03:34:33;99792.65;;;13.75;39.95
51053;BME280;37093;37.716;-122.060;2023-02-12T03:37:09;99794.54;;;13.57;40.19
51053;BME280;37093;37.716;-122.060;2023-02-12T03:39:48;99797.43;;;13.82;39.58
51053;BME280;37093;37.716;-122.060;2023-02-12T03:42:26;99805.18;;;13.25;40.39
51053;BME280;37093;37.716;-122.060;2023-02-12T03:44:58;99810.93;;;13.81;39.87
51053;BME280;37093;37.716;-122.060;2023-02-12T03:47:39;99815.51;;;13.41;40.63
51053;BME280;37093;37.716;-122.060;2023-02-12T03:50:14;99822.54;;;13.24;40.01
51053;BME280;37093;37.716;-122.060;2023-02-12T03:52:44;99823.97;;;13.92;40.08
51053;BME280;37093;37.716;-122.060;2023-02-12T03:55:13;99824.53;;;13.63;39.93
51053;BME280;37093;37.716;-122.060;2023-02-12T03:57:45;99821.66;;;13.86;39.65
51053;BME280;37093;37.716;-122.060;2023-02-12T04:00:18;99817.62;;;13.59;39.19
51053;BME280;37093;37.716;-122.060;2023-02-12T04:00:23;99816.47;;;14.01;39.40
51053;BME280;37093;37.716;-122.060;2023-02-12T04:02:53;99804.33;;;13.44;39.94
51053;BME280;37093;37.716;-122.060;2023-02-12T04:05:24;99800.79;;;13.81;40.04
51053;BME280;37093;37.716;-122.060;2023-02-12T04:07:54;99797.03;;;13.71;39.73
51053;BME280;37093;37.716;-122.060;2023-02-12T04:10:28;99795.50;;;13.75;39.78
51053;BME280;37093;37.716;-122.060;2023-02-12T04:13:06;99797.06;;;13.78;39.45
51053;BME280;37093;37.716;-122.060;2023-02-12T04:15:48;99802.09;;;13.24;39.72
51053;BME280;37093;37.716;-122.060;2023-02-12T04:18:21;99809.48;;;13.66;39.74
51053;BME280;37093;37.716;-122.060;2023-02-12T04:20:59;99813.34;;;13.54;40.07
51053;BME280;37093;37.716;-122.060;2023-02-12T04:23:41;99818.20;;;13.11;40.78
51053;BME280;37093;37.716;-122.060;2023-02-12T04:26:20;99825.11;;;12.76;40.91
51053;BME280;37093;37.716;-122.060;2023-02-12T04:28:58;99820.43;;;12.99;41.52
51053;BME280;37093;37.716;-122.060;2023-02-12T04:31:37;99821.26;;;12.72;41.48
51053;BME280;37093;37.716;-122.060;2023-02-12T04:34:11;99820.17;;;12.85;41.27
51053;BME280;37093;37.716;-122.060;2023-02-12T04:36:45;99821.01;;;12.91;41.34
51053;BME280;37093;37.716;-122.060;2023-02-12T04:39:20;99826.15;;;13.09;40.69
51053;BME280;37093;37.716;-122.060;2023-02-12T04:41:50;99828.82;;;12.92;40.84
51053;BME280;37093;37.716;-122.060;2023-02-12T04:44:24;99825.77;;;12.78;41.05
51053;BME280;37093;37.716;-122.060;2023-02-12T04:46:53;99820.37;;;13.05;40.75
51053;BME280;37093;37.716;-122.060;2023-02-12T04:49:23;99821.62;;;12.96;40.97
51053;BME280;37093;37.716;-122.060;2023-02-12T04:51:51;99816.51;;;12.93;41.22
51053;BME280;37093;37.716;-122.060;2023-02-12T04:54:21;99819.18;;;12.95;41.01
51053;BME280;37093;37.716;-122.060;2023-02-12T04:56:50;99818.68;;;12.59;41.12
51053;BME280;37093;37.716;-122.060;2023-02-12T04:59:19;99813.15;;;12.65;42.18
51053;BME280;37093;37.716;-122.060;2023-02-12T05:01:47;99809.01;;;12.62;42.03
51053;BME280;37093;37.716;-122.060;2023-02-12T05:04:17;99802.04;;;12.25;42.67
51053;BME280;37093;37.716;-122.060;2023-02-12T05:06:46;99804.61;;;12.04;43.03
51053;BME280;37093;37.716;-122.060;2023-02-12T05:09:17;99806.11;;;12.06;43.09
51053;BME280;37093;37.716;-122.060;2023-02-12T05:11:46;99808.64;;;12.53;42.27
51053;BME280;37093;37.716;-122.060;2023-02-12T05:14:15;99813.54;;;12.35;42.28
51053;BME280;37093;37.716;-122.060;2023-02-12T05:16:44;99808.54;;;12.19;42.28
51053;BME280;37093;37.716;-122.060;2023-02-12T05:19:13;99809.05;;;12.32;42.30
51053;BME280;37093;37.716;-122.060;2023-02-12T05:21:41;99811.94;;;12.43;41.83
51053;BME280;37093;37.716;-122.060;2023-02-12T05:24:10;99807.32;;;11.71;42.13
51053;BME280;37093;37.716;-122.060;2023-02-12T05:26:38;99807.42;;;11.93;42.33
51053;BME280;37093;37.716;-122.060;2023-02-12T05:29:07;99804.06;;;11.79;43.14
51053;BME280;37093;37.716;-122.060;2023-02-12T05:31:35;99806.74;;;11.53;43.21
51053;BME280;37093;37.716;-122.060;2023-02-12T05:34:07;99805.64;;;11.64;43.47
51053;BME280;37093;37.716;-122.060;2023-02-12T05:36:38;99808.52;;;11.64;43.45
51053;BME280;37093;37.716;-122.060;2023-02-12T05:39:06;99811.97;;;11.28;44.76
51053;BME280;37093;37.716;-122.060;2023-02-12T05:41:35;99809.27;;;11.09;44.39
51053;BME280;37093;37.716;-122.060;2023-02-12T05:44:05;99805.19;;;11.14;44.43
51053;BME280;37093;37.716;-122.060;2023-02-12T05:46:33;99805.00;;;11.13;44.64
51053;BME280;37093;37.716;-122.060;2023-02-12T05:49:02;99799.01;;;11.42;43.83
51053;BME280;37093;37.716;-122.060;2023-02-12T05:51:32;99798.09;;;11.27;43.72
51053;BME280;37093;37.716;-122.060;2023-02-12T05:54:02;99792.81;;;11.00;43.86
51053;BME280;37093;37.716;-122.060;2023-02-12T05:56:32;99794.28;;;11.60;43.49
51053;BME280;37093;37.716;-122.060;2023-02-12T05:59:03;99796.33;;;11.88;43.16
51053;BME280;37093;37.716;-122.060;2023-02-12T06:01:34;99792.15;;;12.12;42.38
51053;BME280;37093;37.716;-122.060;2023-02-12T06:04:06;99795.61;;;11.79;42.68
51053;BME280;37093;37.716;-122.060;2023-02-12T06:06:35;99794.05;;;11.52;43.53
51053;BME280;37093;37.716;-122.060;2023-02-12T06:09:04;99788.15;;;11.03;44.43
51053;BME280;37093;37.716;-122.060;2023-02-12T06:11:32;99789.13;;;10.84;44.31
51053;BME280;37093;37.716;-122.060;2023-02-12T06:14:02;99792.78;;;10.88;44.40
51053;BME280;37093;37.716;-122.060;2023-02-12T06:16:31;99788.22;;;10.76;45.43
51053;BME280;37093;37.716;-122.060;2023-02-12T06:19:03;99783.40;;;10.99;44.68
51053;BME280;37093;37.716;-122.060;2023-02-12T06:21:32;99781.32;;;11.24;43.41
51053;BME280;37093;37.716;-122.060;2023-02-12T06:24:00;99780.38;;;10.90;44.25
51053;BME280;37093;37.716;-122.060;2023-02-12T06:26:29;99776.59;;;11.12;43.57
51053;BME280;37093;37.716;-122.060;2023-02-12T06:28:58;99774.97;;;11.39;43.61
51053;BME280;37093;37.716;-122.060;2023-02-12T06:31:28;99773.36;;;11.09;43.36
51053;BME280;37093;37.716;-122.060;2023-02-12T06:33:59;99771.44;;;11.27;42.84
51053;BME280;37093;37.716;-122.060;2023-02-12T06:36:28;99766.57;;;11.33;42.39
51053;BME280;37093;37.716;-122.060;2023-02-12T06:38:57;99762.03;;;11.23;42.42
51053;BME280;37093;37.716;-122.060;2023-02-12T06:41:25;99758.43;;;11.34;41.82
51053;BME280;37093;37.716;-122.060;2023-02-12T06:43:54;99758.33;;;11.32;41.76
51053;BME280;37093;37.716;-122.060;2023-02-12T06:46:23;99756.97;;;11.19;41.76
51053;BME280;37093;37.716;-122.060;2023-02-12T06:48:53;99758.16;;;11.61;41.23
51053;BME280;37093;37.716;-122.060;2023-02-12T06:51:22;99752.87;;;11.75;41.05
51053;BME280;37093;37.716;-122.060;2023-02-12T06:53:52;99759.36;;;11.95;40.86
51053;BME280;37093;37.716;-122.060;2023-02-12T06:56:21;99760.18;;;12.10;40.65
51053;BME280;37093;37.716;-122.060;2023-02-12T06:58:53;99761.35;;;12.15;40.47
51053;BME280;37093;37.716;-122.060;2023-02-12T07:01:24;99761.51;;;11.96;39.68
51053;BME280;37093;37.716;-122.060;2023-02-12T07:03:54;99766.88;;;12.00;40.01
51053;BME280;37093;37.716;-122.060;2023-02-12T07:06:24;99768.85;;;12.21;40.15
51053;BME280;37093;37.716;-122.060;2023-02-12T07:08:53;99769.74;;;12.27;40.17
51053;BME280;37093;37.716;-122.060;2023-02-12T07:11:25;99777.30;;;12.21;40.49
51053;BME280;37093;37.716;-122.060;2023-02-12T07:13:54;99786.08;;;11.93;40.26
51053;BME280;37093;37.716;-122.060;2023-02-12T07:16:23;99791.59;;;12.11;40.32
51053;BME280;37093;37.716;-122.060;2023-02-12T07:18:51;99791.69;;;12.01;40.23
51053;BME280;37093;37.716;-122.060;2023-02-12T07:21:21;99791.32;;;12.06;40.18
51053;BME280;37093;37.716;-122.060;2023-02-12T07:23:51;99797.43;;;12.05;40.38
51053;BME280;37093;37.716;-122.060;2023-02-12T07:26:20;99799.95;;;11.97;40.25
51053;BME280;37093;37.716;-122.060;2023-02-12T07:28:50;99797.96;;;12.05;40.26
51053;BME280;37093;37.716;-122.060;2023-02-12T07:31:20;99804.06;;;12.08;40.21
51053;BME280;37093;37.716;-122.060;2023-02-12T07:33:53;99801.35;;;12.12;40.23
51053;BME280;37093;37.716;-122.060;2023-02-12T07:36:22;99810.23;;;12.14;40.01
51053;BME280;37093;37.716;-122.060;2023-02-12T07:38:51;99810.10;;;11.98;39.95
51053;BME280;37093;37.716;-122.060;2023-02-12T07:41:21;99810.82;;;11.91;39.85
51053;BME280;37093;37.716;-122.060;2023-02-12T07:43:54;99814.84;;;11.79;40.35
51053;BME280;37093;37.716;-122.060;2023-02-12T07:46:24;99815.62;;;11.92;40.80
51053;BME280;37093;37.716;-122.060;2023-02-12T07:48:53;99820.01;;;11.62;40.70
51053;BME280;37093;37.716;-122.060;2023-02-12T07:51:22;99824.63;;;11.65;40.86
51053;BME280;37093;37.716;-122.060;2023-02-12T07:53:50;99828.95;;;11.67;40.54
51053;BME280;37093;37.716;-122.060;2023-02-12T07:56:21;99829.41;;;11.82;40.42
51053;BME280;37093;37.716;-122.060;2023-02-12T07:58:52;99832.22;;;11.90;40.19
51053;BME280;37093;37.716;-122.060;2023-02-12T08:01:17;99834.44;;;10.60;40.33
51053;BME280;37093;37.716;-122.060;2023-02-12T08:03:46;99834.99;;;10.73;39.12
51053;BME280;37093;37.716;-122.060;2023-02-12T08:06:18;99841.26;;;12.66;37.80
51053;BME280;37093;37.716;-122.060;2023-02-12T08:08:49;99841.20;;;12.63;37.83
51053;BME280;37093;37.716;-122.060;2023-02-12T08:11:18;99838.10;;;12.81;38.35
51053;BME280;37093;37.716;-122.060;2023-02-12T08:13:47;99832.10;;;12.46;39.33
51053;BME280;37093;37.716;-122.060;2023-02-12T08:16:17;99830.07;;;12.11;39.61
51053;BME280;37093;37.716;-122.060;2023-02-12T08:18:46;99844.52;;;12.20;39.84
51053;BME280;37093;37.716;-122.060;2023-02-12T08:21:16;99840.42;;;12.15;40.25
51053;BME280;37093;37.716;-122.060;2023-02-12T08:23:46;99843.11;;;12.09;40.01
51053;BME280;37093;37.716;-122.060;2023-02-12T08:26:16;99843.30;;;12.06;40.30
51053;BME280;37093;37.716;-122.060;2023-02-12T08:28:48;99842.77;;;11.78;40.68
51053;BME280;37093;37.716;-122.060;2023-02-12T08:31:18;99844.02;;;12.03;40.53
51053;BME280;37093;37.716;-122.060;2023-02-12T08:33:48;99849.69;;;11.98;40.48
51053;BME280;37093;37.716;-122.060;2023-02-12T08:36:18;99848.74;;;11.96;40.46
51053;BME280;37093;37.716;-122.060;2023-02-12T08:38:48;99841.11;;;11.71;40.78
51053;BME280;37093;37.716;-122.060;2023-02-12T08:41:19;99840.16;;;11.95;40.68
51053;BME280;37093;37.716;-122.060;2023-02-12T08:43:48;99834.96;;;11.89;40.88
51053;BME280;37093;37.716;-122.060;2023-02-12T08:46:19;99831.33;;;11.87;40.88
51053;BME280;37093;37.716;-122.060;2023-02-12T08:48:47;99830.13;;;11.85;41.09
51053;BME280;37093;37.716;-122.060;2023-02-12T08:51:18;99826.72;;;11.59;41.16
51053;BME280;37093;37.716;-122.060;2023-02-12T08:53:50;99833.08;;;11.74;41.16
51053;BME280;37093;37.716;-122.060;2023-02-12T08:56:21;99840.79;;;11.66;41.36
51053;BME280;37093;37.716;-122.060;2023-02-12T08:58:50;99847.08;;;11.82;41.35
51053;BME280;37093;37.716;-122.060;2023-02-12T09:01:20;99852.91;;;11.64;41.47
51053;BME280;37093;37.716;-122.060;2023-02-12T09:03:49;99855.90;;;11.90;41.26
51053;BME280;37093;37.716;-122.060;2023-02-12T09:06:19;99856.67;;;11.71;41.09
51053;BME280;37093;37.716;-122.060;2023-02-12T09:08:48;99854.51;;;11.64;40.97
51053;BME280;37093;37.716;-122.060;2023-02-12T09:11:19;99848.75;;;11.67;40.68
51053;BME280;37093;37.716;-122.060;2023-02-12T09:13:47;99852.55;;;11.75;41.34
51053;BME280;37093;37.716;-122.060;2023-02-12T09:16:16;99861.51;;;11.50;41.12
51053;BME280;37093;37.716;-122.060;2023-02-12T09:18:45;99872.29;;;11.43;41.21
51053;BME280;37093;37.716;-122.060;2023-02-12T09:21:14;99871.95;;;11.19;41.37
51053;BME280;37093;37.716;-122.060;2023-02-12T09:23:43;99875.84;;;11.61;41.31
51053;BME280;37093;37.716;-122.060;2023-02-12T09:26:14;99870.60;;;11.37;41.85
51053;BME280;37093;37.716;-122.060;2023-02-12T09:28:43;99867.82;;;11.13;41.67
51053;BME280;37093;37.716;-122.060;2023-02-12T09:31:13;99871.17;;;11.37;41.75
51053;BME280;37093;37.716;-122.060;2023-02-12T09:33:42;99874.61;;;11.60;41.99
51053;BME280;37093;37.716;-122.060;2023-02-12T09:36:12;99875.28;;;11.10;41.40
51053;BME280;37093;37.716;-122.060;2023-02-12T09:38:42;99874.41;;;11.21;42.05
51053;BME280;37093;37.716;-122.060;2023-02-12T09:41:28;99866.11;;;11.25;41.92
51053;BME280;37093;37.716;-122.060;2023-02-12T09:44:08;99860.88;;;11.08;42.35
51053;BME280;37093;37.716;-122.060;2023-02-12T09:46:44;99859.52;;;11.17;42.33
51053;BME280;37093;37.716;-122.060;2023-02-12T09:49:22;99854.17;;;11.20;42.20
51053;BME280;37093;37.716;-122.060;2023-02-12T09:51:54;99849.98;;;11.43;41.90
51053;BME280;37093;37.716;-122.060;2023-02-12T09:54:25;99847.62;;;10.91;42.19
51053;BME280;37093;37.716;-122.060;2023-02-12T09:56:58;99847.20;;;11.25;42.28
51053;BME280;37093;37.716;-122.060;2023-02-12T09:59:32;99843.69;;;10.97;42.28
51053;BME280;37093;37.716;-122.060;2023-02-12T10:02:02;99843.05;;;10.98;42.30
51053;BME280;37093;37.716;-122.060;2023-02-12T10:04:34;99844.63;;;11.00;42.55
51053;BME280;37093;37.716;-122.060;2023-02-12T10:07:10;99844.52;;;11.25;42.35
51053;BME280;37093;37.716;-122.060;2023-02-12T10:10:02;99850.03;;;11.03;42.79
51053;BME280;37093;37.716;-122.060;2023-02-12T10:12:42;99848.05;;;10.97;42.56
51053;BME280;37093;37.716;-122.060;2023-02-12T10:15:27;99845.92;;;11.01;42.73
51053;BME280;37093;37.716;-122.060;2023-02-12T10:18:10;99843.27;;;10.95;42.60
51053;BME280;37093;37.716;-122.060;2023-02-12T10:20:51;99845.86;;;10.32;43.05
51053;BME280;37093;37.716;-122.060;2023-02-12T10:23:36;99845.32;;;10.62;42.71
51053;BME280;37093;37.716;-122.060;2023-02-12T10:26:17;99845.23;;;11.30;42.42
51053;BME280;37093;37.716;-122.060;2023-02-12T10:28:46;99847.63;;;10.72;42.62
51053;BME280;37093;37.716;-122.060;2023-02-12T10:31:23;99847.93;;;10.97;42.56
51053;BME280;37093;37.716;-122.060;2023-02-12T10:33:52;99856.91;;;11.03;42.27
51053;BME280;37093;37.716;-122.060;2023-02-12T10:36:31;99859.65;;;10.98;42.41
51053;BME280;37093;37.716;-122.060;2023-02-12T10:39:11;99858.71;;;11.10;42.70
51053;BME280;37093;37.716;-122.060;2023-02-12T10:41:45;99857.46;;;11.01;42.52
51053;BME280;37093;37.716;-122.060;2023-02-12T10:44:15;99857.83;;;11.03;42.77
51053;BME280;37093;37.716;-122.060;2023-02-12T10:46:43;99869.08;;;10.93;42.71
51053;BME280;37093;37.716;-122.060;2023-02-12T10:49:16;99869.55;;;10.99;42.96
51053;BME280;37093;37.716;-122.060;2023-02-12T10:51:57;99866.97;;;10.79;42.72
51053;BME280;37093;37.716;-122.060;2023-02-12T10:54:38;99868.53;;;10.83;42.70
51053;BME280;37093;37.716;-122.060;2023-02-12T10:57:11;99864.78;;;11.03;42.83
51053;BME280;37093;37.716;-122.060;2023-02-12T10:59:41;99864.71;;;10.99;42.92
51053;BME280;37093;37.716;-122.060;2023-02-12T11:02:21;99866.37;;;10.71;42.92
51053;BME280;37093;37.716;-122.060;2023-02-12T11:04:52;99860.45;;;10.97;42.85
51053;BME280;37093;37.716;-122.060;2023-02-12T11:07:21;99858.88;;;10.37;43.32
51053;BME280;37093;37.716;-122.060;2023-02-12T11:09:52;99859.13;;;10.53;42.94
51053;BME280;37093;37.716;-122.060;2023-02-12T11:12:27;99847.40;;;10.76;43.24
51053;BME280;37093;37.716;-122.060;2023-02-12T11:14:59;99857.62;;;10.82;43.14
51053;BME280;37093;37.716;-122.060;2023-02-12T11:17:34;99868.04;;;10.75;43.38
51053;BME280;37093;37.716;-122.060;2023-02-12T11:20:20;99870.47;;;10.32;43.32
51053;BME280;37093;37.716;-122.060;2023-02-12T11:22:53;99869.16;;;10.62;43.37
51053;BME280;37093;37.716;-122.060;2023-02-12T11:25:27;99872.29;;;10.94;43.05
51053;BME280;37093;37.716;-122.060;2023-02-12T11:28:11;99865.17;;;10.56;42.95
51053;BME280;37093;37.716;-122.060;2023-02-12T11:30:55;99872.38;;;10.72;42.58
51053;BME280;37093;37.716;-122.060;2023-02-12T11:33:30;99876.63;;;10.86;42.86
51053;BME280;37093;37.716;-122.060;2023-02-12T11:36:02;99881.79;;;10.91;42.89
51053;BME280;37093;37.716;-122.060;2023-02-12T11:38:35;99886.66;;;10.85;42.97
51053;BME280;37093;37.716;-122.060;2023-02-12T11:41:17;99875.93;;;10.31;43.22
51053;BME280;37093;37.716;-122.060;2023-02-12T11:43:49;99879.78;;;10.59;43.11
51053;BME280;37093;37.716;-122.060;2023-02-12T11:46:20;99878.11;;;10.98;43.27
51053;BME280;37093;37.716;-122.060;2023-02-12T11:48:50;99875.82;;;10.80;42.94
51053;BME280;37093;37.716;-122.060;2023-02-12T11:51:23;99873.02;;;10.82;42.90
51053;BME280;37093;37.716;-122.060;2023-02-12T11:53:54;99875.92;;;10.74;42.83
51053;BME280;37093;37.716;-122.060;2023-02-12T11:56:24;99873.15;;;10.92;42.93
51053;BME280;37093;37.716;-122.060;2023-02-12T11:59:19;99874.63;;;10.79;42.92
51053;BME280;37093;37.716;-122.060;2023-02-12T12:01:51;99873.64;;;10.90;42.91
51053;BME280;37093;37.716;-122.060;2023-02-12T12:04:22;99877.13;;;11.18;42.77
51053;BME280;37093;37.716;-122.060;2023-02-12T12:06:58;99882.21;;;10.60;43.10
51053;BME280;37093;37.716;-122.060;2023-02-12T12:09:33;99883.13;;;10.74;43.00
51053;BME280;37093;37.716;-122.060;2023-02-12T12:12:11;99884.65;;;10.98;43.09
51053;BME280;37093;37.716;-122.060;2023-02-12T12:14:47;99885.52;;;11.02;42.90
51053;BME280;37093;37.716;-122.060;2023-02-12T12:17:18;99883.81;;;10.77;42.98
51053;BME280;37093;37.716;-122.060;2023-02-12T12:19:53;99879.23;;;10.70;43.09
51053;BME280;37093;37.716;-122.060;2023-02-12T12:22:35;99879.33;;;11.02;43.10
51053;BME280;37093;37.716;-122.060;2023-02-12T12:25:16;99872.44;;;10.72;42.99
51053;BME280;37093;37.716;-122.060;2023-02-12T12:27:59;99873.44;;;10.97;43.28
51053;BME280;37093;37.716;-122.060;2023-02-12T12:30:41;99867.22;;;10.43;43.99
51053;BME280;37093;37.716;-122.060;2023-02-12T12:33:18;99864.62;;;10.55;43.95
51053;BME280;37093;37.716;-122.060;2023-02-12T12:35:58;99864.64;;;10.26;43.80
51053;BME280;37093;37.716;-122.060;2023-02-12T12:38:39;99860.01;;;10.64;44.07
51053;BME280;37093;37.716;-122.060;2023-02-12T12:41:22;99865.28;;;10.35;43.87
51053;BME280;37093;37.716;-122.060;2023-02-12T12:44:02;99861.30;;;10.66;43.85
51053;BME280;37093;37.716;-122.060;2023-02-12T12:46:45;99872.91;;;10.64;43.59
51053;BME280;37093;37.716;-122.060;2023-02-12T12:49:32;99873.30;;;10.65;43.31
51053;BME280;37093;37.716;-122.060;2023-02-12T12:52:17;99867.16;;;10.29;43.85
51053;BME280;37093;37.716;-122.060;2023-02-12T12:55:00;99868.95;;;10.26;43.85